Time;durP1;ratioP1;P1;durP2;ratioP2;P2;SDS_P1;SDS_P2;PMS_P1;PMS_P2;Temp;Humidity;BMP_temperature;BMP_pressure;BME280_temperature;BME280_humidity;BME280_pressure;Samples;Min_cycle;Max_cycle;Signal;HPM_P1;HPM_P2
2021/08/28 00:02:23;;;;;;;9.83;8.83;;;18.30;99.90;;;;;;5028237;28;20177;-67
2021/08/28 00:04:50;;;;;;;9.50;8.70;;;18.20;99.90;;;;;;5051283;28;20173;-67
2021/08/28 00:07:16;;;;;;;10.50;9.60;;;18.20;99.90;;;;;;5050399;28;20416;-67
2021/08/28 00:09:41;;;;;;;10.73;9.83;;;18.20;99.90;;;;;;5051272;28;20461;-67
2021/08/28 00:12:07;;;;;;;10.20;9.40;;;18.10;99.90;;;;;;5051887;28;20665;-67
2021/08/28 00:14:33;;;;;;;12.23;10.10;;;18.10;99.90;;;;;;5034037;28;20311;-70
2021/08/28 00:16:59;;;;;;;12.93;9.77;;;18.10;99.90;;;;;;5045708;28;20185;-67
2021/08/28 00:19:24;;;;;;;10.70;9.70;;;18.10;99.90;;;;;;5031728;28;20201;-67
2021/08/28 00:21:50;;;;;;;11.00;10.10;;;18.00;99.90;;;;;;5031266;28;20614;-67
2021/08/28 00:24:16;;;;;;;12.80;11.70;;;18.00;99.90;;;;;;5031996;28;20174;-67
2021/08/28 00:26:41;;;;;;;10.77;9.70;;;17.90;99.90;;;;;;5015774;28;20205;-67
2021/08/28 00:29:07;;;;;;;12.80;11.60;;;17.90;99.90;;;;;;5034003;28;20173;-67
2021/08/28 00:31:33;;;;;;;12.47;11.47;;;17.90;99.90;;;;;;5051855;28;20210;-67
2021/08/28 00:33:59;;;;;;;13.07;11.90;;;17.90;99.90;;;;;;5050902;28;20185;-67
2021/08/28 00:36:24;;;;;;;12.57;11.47;;;17.90;99.90;;;;;;5051492;28;20231;-67
2021/08/28 00:38:50;;;;;;;11.30;10.40;;;17.90;99.90;;;;;;5050682;28;20178;-67
2021/08/28 00:41:16;;;;;;;12.70;11.43;;;17.80;99.90;;;;;;5051672;28;20204;-67
2021/08/28 00:43:42;;;;;;;13.30;12.00;;;17.80;99.90;;;;;;5050320;28;20188;-67
2021/08/28 00:46:08;;;;;;;11.97;10.93;;;17.80;99.90;;;;;;5051403;28;20182;-67
2021/08/28 00:48:34;;;;;;;13.00;11.80;;;17.80;99.90;;;;;;5016036;28;20863;-67
2021/08/28 00:51:00;;;;;;;12.90;11.70;;;17.80;99.90;;;;;;5014635;28;20452;-67
2021/08/28 00:53:25;;;;;;;13.33;12.20;;;17.80;99.90;;;;;;5035546;28;20253;-67
2021/08/28 00:55:55;;;;;;;13.47;12.17;;;17.80;99.90;;;;;;5017018;28;20428;-67
2021/08/28 00:58:22;;;;;;;13.60;12.27;;;17.80;99.90;;;;;;5050530;28;20209;-67
2021/08/28 01:00:53;;;;;;;12.20;11.10;;;17.80;99.90;;;;;;5054273;28;20419;-67
2021/08/28 01:03:23;;;;;;;14.00;12.60;;;17.80;99.90;;;;;;5055057;28;20825;-67
2021/08/28 01:06:34;;;;;;;13.17;11.87;;;17.80;99.90;;;;;;5054405;28;20396;-68
2021/08/28 01:09:08;;;;;;;14.90;13.37;;;17.80;99.90;;;;;;5015734;28;20596;-67
2021/08/28 01:11:42;;;;;;;17.23;15.30;;;17.80;99.90;;;;;;5055118;28;20431;-68
2021/08/28 01:14:12;;;;;;;18.13;16.27;;;17.90;99.90;;;;;;5037311;28;20443;-68
2021/08/28 01:16:39;;;;;;;18.50;15.80;;;17.90;99.90;;;;;;5054735;28;20454;-73
2021/08/28 01:19:06;;;;;;;19.87;16.30;;;17.90;99.90;;;;;;5054728;28;20439;-68
2021/08/28 01:21:34;;;;;;;20.80;18.60;;;17.90;99.90;;;;;;5054537;28;20459;-67
2021/08/28 01:24:05;;;;;;;18.73;16.73;;;18.00;99.90;;;;;;5054141;28;20416;-67
2021/08/28 01:26:41;;;;;;;19.30;16.70;;;18.00;99.90;;;;;;5037138;28;20765;-67
2021/08/28 01:29:13;;;;;;;18.87;16.80;;;18.00;99.90;;;;;;5035561;28;20893;-67
2021/08/28 01:31:38;;;;;;;17.50;15.60;;;18.00;99.90;;;;;;5054849;28;20513;-73
2021/08/28 01:34:04;;;;;;;22.60;15.57;;;18.10;99.90;;;;;;5039991;28;20515;-67
2021/08/28 01:36:33;;;;;;;16.10;14.50;;;18.00;99.90;;;;;;5034292;28;20174;-67
2021/08/28 01:39:01;;;;;;;15.03;13.37;;;18.10;99.90;;;;;;5035041;28;20182;-67
2021/08/28 01:41:27;;;;;;;15.83;14.13;;;18.00;99.90;;;;;;5017273;28;20888;-67
2021/08/28 01:43:53;;;;;;;17.23;15.13;;;18.10;99.90;;;;;;5033646;28;20563;-67
2021/08/28 01:46:19;;;;;;;14.90;13.20;;;18.10;99.90;;;;;;5052744;28;20428;-67
2021/08/28 01:48:47;;;;;;;15.50;13.90;;;18.00;99.90;;;;;;5053520;28;20448;-68
2021/08/28 01:51:13;;;;;;;17.73;13.50;;;18.10;99.90;;;;;;5054163;28;20233;-68
2021/08/28 01:53:39;;;;;;;17.07;14.00;;;18.00;99.90;;;;;;5053394;28;20878;-72
2021/08/28 01:56:05;;;;;;;15.13;13.70;;;18.00;99.90;;;;;;5035392;28;20558;-67
2021/08/28 01:58:31;;;;;;;16.17;14.30;;;18.00;99.90;;;;;;5053787;28;20271;-67
2021/08/28 02:00:57;;;;;;;15.03;13.47;;;18.00;99.90;;;;;;5053257;28;20424;-67
2021/08/28 02:03:23;;;;;;;14.63;13.23;;;18.00;99.90;;;;;;5035986;28;20428;-67
2021/08/28 02:05:55;;;;;;;15.80;13.83;;;18.10;99.90;;;;;;5033423;28;20409;-67
2021/08/28 02:08:28;;;;;;;15.40;13.90;;;18.10;99.90;;;;;;5034322;28;20178;-67
2021/08/28 02:11:02;;;;;;;13.30;11.90;;;18.10;99.90;;;;;;5033294;28;20436;-67
2021/08/28 02:13:39;;;;;;;15.10;13.50;;;18.00;99.90;;;;;;5035753;28;20413;-67
2021/08/28 02:16:09;;;;;;;14.30;12.90;;;18.00;99.90;;;;;;5053147;28;20400;-67
2021/08/28 02:18:51;;;;;;;13.40;12.10;;;18.00;99.90;;;;;;5053979;28;20922;-67
2021/08/28 02:21:18;;;;;;;13.63;12.23;;;18.00;99.90;;;;;;5046306;28;20417;-67
2021/08/28 02:24:03;;;;;;;14.63;13.00;;;18.00;99.90;;;;;;5033257;28;20758;-72
2021/08/28 02:26:39;;;;;;;14.77;12.53;;;18.00;99.90;;;;;;5016240;28;20497;-67
2021/08/28 02:29:13;;;;;;;13.00;11.70;;;18.00;99.90;;;;;;5032942;28;20413;-67
2021/08/28 02:31:44;;;;;;;14.57;13.10;;;18.00;99.90;;;;;;5034811;28;20452;-67
2021/08/28 02:34:11;;;;;;;15.20;12.97;;;18.00;99.90;;;;;;5033807;28;20465;-67
2021/08/28 02:36:41;;;;;;;14.73;12.93;;;18.00;99.90;;;;;;5033612;28;20405;-67
2021/08/28 02:39:08;;;;;;;13.57;12.17;;;18.00;99.90;;;;;;5015268;28;20409;-67
2021/08/28 02:41:36;;;;;;;15.07;13.20;;;18.00;99.90;;;;;;5033408;28;20901;-67
2021/08/28 02:44:05;;;;;;;14.33;12.83;;;18.00;99.90;;;;;;5045367;28;20486;-67
2021/08/28 02:46:32;;;;;;;15.37;13.80;;;18.00;99.90;;;;;;5037753;28;20437;-67
2021/08/28 02:49:00;;;;;;;15.13;13.63;;;18.00;99.90;;;;;;5031754;28;20488;-67
2021/08/28 02:51:29;;;;;;;15.20;13.90;;;18.00;99.90;;;;;;5033470;28;20461;-67
2021/08/28 02:53:59;;;;;;;14.40;13.03;;;18.00;99.90;;;;;;5032420;28;20417;-66
2021/08/28 02:56:27;;;;;;;17.37;14.07;;;18.00;99.90;;;;;;5034371;28;20456;-66
2021/08/28 02:58:53;;;;;;;15.73;12.63;;;18.00;99.90;;;;;;5037525;28;20912;-67
2021/08/28 03:01:19;;;;;;;15.73;14.23;;;18.00;99.90;;;;;;5053264;28;20415;-67
2021/08/28 03:03:46;;;;;;;13.03;12.03;;;18.00;99.90;;;;;;5018264;28;20192;-73
2021/08/28 03:06:12;;;;;;;15.17;13.70;;;18.00;99.90;;;;;;5052298;28;20451;-66
2021/08/28 03:08:41;;;;;;;14.83;12.80;;;18.00;99.90;;;;;;5052146;28;20416;-68
2021/08/28 03:11:07;;;;;;;13.97;12.57;;;18.00;99.90;;;;;;5051760;28;20444;-68
2021/08/28 03:13:33;;;;;;;15.40;12.70;;;18.00;99.90;;;;;;5052155;28;20409;-67
2021/08/28 03:15:59;;;;;;;17.00;13.33;;;18.00;99.90;;;;;;5051205;28;20892;-67
2021/08/28 03:18:28;;;;;;;14.10;12.80;;;18.00;99.90;;;;;;5050345;28;20935;-68
2021/08/28 03:20:56;;;;;;;13.23;12.00;;;18.00;99.90;;;;;;5032119;28;20422;-68
2021/08/28 03:23:24;;;;;;;13.70;12.47;;;17.90;99.90;;;;;;5032580;28;20876;-67
2021/08/28 03:25:51;;;;;;;13.50;12.30;;;17.90;99.90;;;;;;5014310;28;20771;-68
2021/08/28 03:28:17;;;;;;;14.30;13.00;;;17.90;99.90;;;;;;5032893;28;20429;-67
2021/08/28 03:30:48;;;;;;;14.40;12.23;;;17.90;99.90;;;;;;5000806;28;20424;-67
2021/08/28 03:33:16;;;;;;;15.37;13.87;;;17.90;99.90;;;;;;5052740;28;20411;-68
2021/08/28 03:35:45;;;;;;;15.40;12.70;;;17.90;99.90;;;;;;5052449;28;20412;-67
2021/08/28 03:38:12;;;;;;;14.40;13.00;;;17.90;99.90;;;;;;5051872;28;20416;-67
2021/08/28 03:40:38;;;;;;;14.47;12.97;;;17.90;99.90;;;;;;5052503;28;20405;-67
2021/08/28 03:43:05;;;;;;;14.27;13.00;;;17.90;99.90;;;;;;5047751;28;20417;-68
2021/08/28 03:45:36;;;;;;;14.93;13.63;;;17.90;99.90;;;;;;5032460;28;20410;-67
2021/08/28 03:48:03;;;;;;;18.17;14.13;;;17.90;99.90;;;;;;5032114;28;20460;-68
2021/08/28 03:50:29;;;;;;;14.47;13.07;;;17.90;99.90;;;;;;5038827;28;20412;-67
2021/08/28 03:52:54;;;;;;;14.37;13.07;;;17.90;99.90;;;;;;5052036;28;20884;-67
2021/08/28 03:55:20;;;;;;;15.43;13.47;;;17.90;99.90;;;;;;5052450;28;20181;-67
2021/08/28 03:57:46;;;;;;;14.70;13.30;;;17.90;99.90;;;;;;5052666;28;20265;-67
2021/08/28 04:00:12;;;;;;;15.50;13.83;;;17.90;99.90;;;;;;5048724;28;20217;-67
2021/08/28 04:02:38;;;;;;;14.90;13.37;;;17.90;99.90;;;;;;5032636;28;20905;-67
2021/08/28 04:05:04;;;;;;;17.27;13.87;;;17.90;99.90;;;;;;5032033;28;20408;-67
2021/08/28 04:07:30;;;;;;;16.17;14.67;;;17.90;99.90;;;;;;5032849;28;20166;-67
2021/08/28 04:09:55;;;;;;;15.53;14.00;;;17.90;99.90;;;;;;5014286;28;20412;-68
2021/08/28 04:12:21;;;;;;;14.70;13.40;;;18.00;99.90;;;;;;5036678;28;20661;-68
2021/08/28 04:14:47;;;;;;;15.70;14.13;;;18.00;99.90;;;;;;5052151;28;20235;-67
2021/08/28 04:17:13;;;;;;;17.03;14.97;;;17.90;99.90;;;;;;5052417;28;20185;-68
2021/08/28 04:19:39;;;;;;;15.40;13.93;;;18.00;99.90;;;;;;5027900;28;20479;-67
2021/08/28 04:22:04;;;;;;;15.80;14.23;;;18.00;99.90;;;;;;5031865;28;20413;-67
2021/08/28 04:24:30;;;;;;;15.73;14.17;;;18.00;99.90;;;;;;5032413;28;20179;-67
2021/08/28 04:26:56;;;;;;;19.00;17.20;;;18.00;99.90;;;;;;5035150;28;20175;-68
2021/08/28 04:29:22;;;;;;;18.00;16.10;;;18.00;99.90;;;;;;5040080;28;20182;-67
2021/08/28 04:31:48;;;;;;;16.30;14.80;;;18.00;99.90;;;;;;5056188;28;20475;-67
2021/08/28 04:34:14;;;;;;;16.27;14.77;;;18.10;99.90;;;;;;5056270;28;20184;-68
2021/08/28 04:36:41;;;;;;;15.90;14.40;;;18.10;99.90;;;;;;5056568;28;20499;-67
2021/08/28 04:39:06;;;;;;;14.67;13.30;;;18.10;99.90;;;;;;5018088;28;20224;-67
2021/08/28 04:41:32;;;;;;;15.63;14.27;;;18.10;99.90;;;;;;5054907;28;20767;-68
2021/08/28 04:43:58;;;;;;;18.23;16.33;;;18.10;99.90;;;;;;5053812;28;20541;-68
2021/08/28 04:46:24;;;;;;;17.17;15.47;;;18.10;99.90;;;;;;5041329;28;20174;-67
2021/08/28 04:48:49;;;;;;;16.83;15.03;;;18.10;99.90;;;;;;5055106;28;20590;-72
2021/08/28 04:51:15;;;;;;;18.67;15.80;;;18.10;99.90;;;;;;5017632;28;20289;-67
2021/08/28 04:53:41;;;;;;;24.83;21.70;;;18.10;99.90;;;;;;5035019;28;20704;-67
2021/08/28 04:56:07;;;;;;;24.27;19.63;;;18.10;99.90;;;;;;5034522;28;20182;-68
2021/08/28 04:58:32;;;;;;;20.57;18.27;;;18.10;99.90;;;;;;5035465;28;20182;-67
2021/08/28 05:00:58;;;;;;;19.97;17.77;;;18.00;99.90;;;;;;5035474;28;20202;-68
2021/08/28 05:03:25;;;;;;;20.53;17.20;;;18.10;99.90;;;;;;5035201;28;20189;-67
2021/08/28 05:05:54;;;;;;;20.03;17.07;;;18.00;99.90;;;;;;5035547;28;20174;-73
2021/08/28 05:08:20;;;;;;;19.87;17.70;;;18.00;99.90;;;;;;5035302;28;20464;-68
2021/08/28 05:10:47;;;;;;;20.33;17.30;;;18.00;99.90;;;;;;5017203;28;20444;-67
2021/08/28 05:13:12;;;;;;;18.40;16.50;;;18.00;99.90;;;;;;5050014;28;20427;-68
2021/08/28 05:15:38;;;;;;;20.13;17.07;;;18.00;99.90;;;;;;5054577;28;20432;-68
2021/08/28 05:18:04;;;;;;;20.27;16.87;;;18.00;99.90;;;;;;5053726;28;20656;-67
2021/08/28 05:20:31;;;;;;;19.67;17.43;;;18.10;99.90;;;;;;5055009;28;20653;-67
2021/08/28 05:22:57;;;;;;;19.87;17.57;;;18.10;99.90;;;;;;5054176;28;20423;-68
2021/08/28 05:25:23;;;;;;;19.47;17.47;;;18.10;99.90;;;;;;5034399;28;20417;-68
2021/08/28 05:27:48;;;;;;;20.17;17.80;;;18.10;99.90;;;;;;5034861;28;20525;-67
2021/08/28 05:30:14;;;;;;;18.83;16.93;;;18.00;99.90;;;;;;5036673;28;20629;-68
2021/08/28 05:32:41;;;;;;;19.33;17.33;;;18.00;99.90;;;;;;5042829;28;20213;-67
2021/08/28 05:35:07;;;;;;;19.43;17.10;;;18.10;99.90;;;;;;5054016;28;20451;-68
2021/08/28 05:37:32;;;;;;;25.17;18.07;;;18.00;99.90;;;;;;5053791;28;20494;-67
2021/08/28 05:39:58;;;;;;;19.87;17.70;;;18.10;99.90;;;;;;5052113;28;20405;-68
2021/08/28 05:42:24;;;;;;;20.73;18.53;;;18.00;99.90;;;;;;5054426;28;20213;-67
2021/08/28 05:44:49;;;;;;;19.33;17.33;;;18.10;99.90;;;;;;5054063;28;20189;-67
2021/08/28 05:47:15;;;;;;;20.73;17.23;;;18.10;99.90;;;;;;5053459;28;20755;-68
2021/08/28 05:49:41;;;;;;;20.77;18.43;;;18.10;99.90;;;;;;5069236;28;20677;-67
2021/08/28 05:52:07;;;;;;;19.93;17.67;;;18.10;99.90;;;;;;5071799;28;20209;-68
2021/08/28 05:54:32;;;;;;;18.37;16.37;;;18.10;99.90;;;;;;5074386;28;20204;-67
2021/08/28 05:56:58;;;;;;;20.10;17.83;;;18.10;99.90;;;;;;5073640;28;20173;-69
2021/08/28 05:59:24;;;;;;;18.47;16.57;;;18.00;99.90;;;;;;5074056;28;20329;-67
2021/08/28 06:01:52;;;;;;;17.70;14.93;;;18.00;99.90;;;;;;5061143;28;20829;-68
2021/08/28 06:04:18;;;;;;;18.07;16.17;;;18.00;99.90;;;;;;5072292;28;20262;-67
2021/08/28 06:06:44;;;;;;;16.93;14.20;;;18.00;99.90;;;;;;5066689;28;20481;-67
2021/08/28 06:09:09;;;;;;;16.60;14.23;;;18.00;99.90;;;;;;5053418;28;20400;-67
2021/08/28 06:11:35;;;;;;;15.23;13.73;;;18.00;99.90;;;;;;5054040;28;20205;-68
2021/08/28 06:14:01;;;;;;;14.37;13.00;;;18.00;99.90;;;;;;5073243;28;20188;-68
2021/08/28 06:16:26;;;;;;;11.93;10.73;;;18.00;99.90;;;;;;5074358;28;20173;-68
2021/08/28 06:18:52;;;;;;;8.93;8.13;;;18.00;99.90;;;;;;5072599;28;20177;-68
2021/08/28 06:21:19;;;;;;;8.20;7.60;;;18.00;99.90;;;;;;5056318;28;20186;-67
2021/08/28 06:23:45;;;;;;;7.20;6.60;;;18.00;99.90;;;;;;5054266;28;20416;-68
2021/08/28 06:26:11;;;;;;;6.70;6.20;;;18.00;99.90;;;;;;5066100;28;20423;-68
2021/08/28 06:28:36;;;;;;;7.30;6.63;;;18.00;99.90;;;;;;5074047;28;20768;-67
2021/08/28 06:31:02;;;;;;;6.37;5.90;;;18.10;99.90;;;;;;5067119;28;20290;-67
2021/08/28 06:33:28;;;;;;;7.40;6.90;;;18.10;99.90;;;;;;5073538;28;20181;-67
2021/08/28 06:35:54;;;;;;;6.63;6.13;;;18.10;99.90;;;;;;5060099;28;20507;-68
2021/08/28 06:38:20;;;;;;;6.57;6.00;;;18.20;99.90;;;;;;5072968;28;20212;-68
2021/08/28 06:40:45;;;;;;;7.13;6.63;;;18.20;99.90;;;;;;5065514;28;20214;-67
2021/08/28 06:43:11;;;;;;;6.53;6.13;;;18.20;99.90;;;;;;5053124;28;20254;-67
2021/08/28 06:45:37;;;;;;;6.10;5.70;;;18.30;99.90;;;;;;5053833;28;20177;-67
2021/08/28 06:48:02;;;;;;;6.97;6.30;;;18.30;99.90;;;;;;5051723;28;20228;-68
2021/08/28 06:50:28;;;;;;;6.43;5.83;;;18.30;99.90;;;;;;5053836;28;20176;-67
2021/08/28 06:52:54;;;;;;;6.17;5.77;;;18.30;99.90;;;;;;5061605;28;20466;-67
2021/08/28 06:55:21;;;;;;;6.47;6.07;;;18.30;99.90;;;;;;5072993;28;20251;-68
2021/08/28 06:57:46;;;;;;;6.67;5.97;;;18.40;99.90;;;;;;5072168;28;20478;-67
2021/08/28 07:00:13;;;;;;;7.37;6.87;;;18.40;99.90;;;;;;5065621;28;20259;-67
2021/08/28 07:02:40;;;;;;;7.77;7.17;;;18.40;99.90;;;;;;5053819;28;20173;-67
2021/08/28 07:05:07;;;;;;;7.50;7.00;;;18.50;99.90;;;;;;5062106;28;20898;-67
2021/08/28 07:07:32;;;;;;;7.33;6.67;;;18.50;99.90;;;;;;5073400;28;20446;-68
2021/08/28 07:09:58;;;;;;;6.83;6.33;;;18.60;99.90;;;;;;5072870;28;20865;-69
2021/08/28 07:12:24;;;;;;;7.10;6.60;;;18.70;99.90;;;;;;5068285;28;20205;-68
2021/08/28 07:14:49;;;;;;;7.57;7.07;;;18.80;99.90;;;;;;5061551;28;20690;-67
2021/08/28 07:17:15;;;;;;;7.47;6.97;;;18.90;99.90;;;;;;5072274;28;20336;-67
2021/08/28 07:19:41;;;;;;;8.10;7.50;;;18.90;99.90;;;;;;5072740;28;20184;-67
2021/08/28 07:22:06;;;;;;;8.30;7.60;;;19.00;99.90;;;;;;5064955;28;20260;-67
2021/08/28 07:24:32;;;;;;;8.83;8.23;;;19.00;99.90;;;;;;5054361;28;20178;-68
2021/08/28 07:26:58;;;;;;;10.97;10.07;;;19.10;99.90;;;;;;5065170;28;20182;-67
2021/08/28 07:29:24;;;;;;;7.03;6.53;;;19.20;99.90;;;;;;5054004;28;20185;-66
2021/08/28 07:31:49;;;;;;;7.17;6.47;;;19.50;99.90;;;;;;5054548;28;20470;-67
2021/08/28 07:34:15;;;;;;;7.43;6.87;;;19.70;99.90;;;;;;5057312;28;20177;-66
2021/08/28 07:36:41;;;;;;;8.57;7.97;;;19.90;99.90;;;;;;5072974;28;20580;-66
2021/08/28 07:39:07;;;;;;;9.40;8.53;;;20.10;99.90;;;;;;5072016;28;20502;-67
2021/08/28 07:41:33;;;;;;;12.70;11.60;;;20.30;99.90;;;;;;5053119;28;20184;-67
2021/08/28 07:43:58;;;;;;;9.97;9.17;;;20.30;99.90;;;;;;5054090;28;20193;-67
2021/08/28 07:46:24;;;;;;;10.73;9.93;;;20.40;99.90;;;;;;5053480;28;20189;-67
2021/08/28 07:48:50;;;;;;;11.90;10.83;;;20.40;99.90;;;;;;5041488;28;20552;-67
2021/08/28 07:51:15;;;;;;;13.50;12.40;;;20.50;99.90;;;;;;5013749;28;20559;-67
2021/08/28 07:53:41;;;;;;;13.43;12.33;;;20.50;99.90;;;;;;5045624;28;20185;-66
2021/08/28 07:56:07;;;;;;;13.67;12.57;;;20.40;99.90;;;;;;5052009;28;20205;-66
2021/08/28 07:58:33;;;;;;;14.77;13.37;;;20.40;99.90;;;;;;5052437;28;20179;-65
2021/08/28 08:00:58;;;;;;;15.33;14.00;;;20.20;99.90;;;;;;5052264;28;20625;-65
2021/08/28 08:03:25;;;;;;;13.37;12.27;;;20.00;99.90;;;;;;5051988;28;20596;-65
2021/08/28 08:05:51;;;;;;;15.83;14.43;;;19.90;99.90;;;;;;5052571;28;20215;-64
2021/08/28 08:08:16;;;;;;;15.53;14.03;;;19.70;99.90;;;;;;5021319;28;20838;-65
2021/08/28 08:10:42;;;;;;;14.60;13.33;;;19.60;99.90;;;;;;5032540;28;20211;-64
2021/08/28 08:13:08;;;;;;;14.90;13.60;;;19.40;99.90;;;;;;5031797;28;20317;-65
2021/08/28 08:15:33;;;;;;;13.60;12.40;;;19.40;99.90;;;;;;5032376;28;20193;-64
2021/08/28 08:17:59;;;;;;;13.80;12.77;;;19.30;99.90;;;;;;5032721;28;20178;-66
2021/08/28 08:20:25;;;;;;;11.93;10.97;;;19.20;99.90;;;;;;5014157;28;20200;-66
2021/08/28 08:22:52;;;;;;;11.63;10.63;;;19.20;99.90;;;;;;5042543;28;20258;-66
2021/08/28 08:25:18;;;;;;;13.80;12.60;;;19.30;99.90;;;;;;5051776;28;20177;-65
2021/08/28 08:27:43;;;;;;;12.23;11.30;;;19.30;99.90;;;;;;5052348;28;20428;-65
2021/08/28 08:30:10;;;;;;;12.17;11.07;;;19.30;99.90;;;;;;5051662;28;20432;-66
2021/08/28 08:32:36;;;;;;;11.90;11.00;;;19.40;99.90;;;;;;5052181;28;20205;-66
2021/08/28 08:35:02;;;;;;;12.80;11.70;;;19.50;99.90;;;;;;5034401;28;20415;-66
2021/08/28 08:37:28;;;;;;;12.20;11.20;;;19.60;99.90;;;;;;5043145;28;20541;-66
2021/08/28 08:39:53;;;;;;;12.67;11.67;;;19.70;99.90;;;;;;5032743;28;20416;-66
2021/08/28 08:42:23;;;;;;;12.83;11.83;;;19.80;99.90;;;;;;5032784;28;20182;-66
2021/08/28 08:44:49;;;;;;;12.47;11.40;;;19.90;99.90;;;;;;5041082;28;20258;-66
2021/08/28 08:47:18;;;;;;;11.67;10.77;;;19.90;99.90;;;;;;5051451;28;20505;-66
2021/08/28 08:49:44;;;;;;;12.30;11.30;;;20.00;99.90;;;;;;5041009;28;20458;-65
2021/08/28 08:52:11;;;;;;;12.03;11.10;;;20.00;99.90;;;;;;5051402;28;20934;-64
2021/08/28 08:54:37;;;;;;;11.70;10.50;;;20.00;99.90;;;;;;5051981;28;20412;-64
2021/08/28 08:57:04;;;;;;;11.43;10.53;;;20.00;99.90;;;;;;5051789;28;20411;-65
2021/08/28 08:59:29;;;;;;;9.83;9.03;;;19.90;99.90;;;;;;5051793;28;20442;-65
2021/08/28 09:01:55;;;;;;;10.93;10.03;;;19.80;99.90;;;;;;5041502;28;20467;-65
2021/08/28 09:04:21;;;;;;;10.90;10.00;;;19.70;99.90;;;;;;5031443;28;20421;-65
2021/08/28 09:06:49;;;;;;;11.80;10.90;;;19.60;99.90;;;;;;5031574;28;20305;-65
2021/08/28 09:09:15;;;;;;;13.30;12.20;;;19.50;99.90;;;;;;5013185;28;20186;-65
2021/08/28 09:12:08;;;;;;;12.67;11.57;;;19.40;99.90;;;;;;5050072;28;20549;-65
2021/08/28 09:14:34;;;;;;;11.90;11.00;;;19.30;99.90;;;;;;5044786;28;20464;-64
2021/08/28 09:17:20;;;;;;;11.70;10.77;;;19.30;99.90;;;;;;5035544;28;20413;-65
2021/08/28 09:19:48;;;;;;;11.80;10.70;;;19.20;99.90;;;;;;5049877;28;20416;-65
2021/08/28 09:22:26;;;;;;;11.47;10.47;;;19.10;99.90;;;;;;5041080;28;20456;-65
2021/08/28 09:24:55;;;;;;;11.30;10.30;;;19.00;99.90;;;;;;5049984;28;20447;-65
2021/08/28 09:27:39;;;;;;;12.00;11.10;;;19.00;99.90;;;;;;5049584;28;20908;-65
2021/08/28 09:30:14;;;;;;;11.20;10.30;;;19.00;99.90;;;;;;5016722;28;20508;-70
2021/08/28 09:32:46;;;;;;;10.50;9.70;;;19.10;99.90;;;;;;5041441;28;20459;-64
2021/08/28 09:35:11;;;;;;;10.70;9.70;;;19.10;99.90;;;;;;5054340;28;20397;-65
2021/08/28 09:37:37;;;;;;;10.70;9.70;;;19.20;99.90;;;;;;5055207;28;20417;-65
2021/08/28 09:40:05;;;;;;;11.87;10.77;;;19.20;99.90;;;;;;5046587;28;20478;-66
2021/08/28 09:42:31;;;;;;;11.20;10.30;;;19.20;99.90;;;;;;5034826;28;20409;-65
2021/08/28 09:45:09;;;;;;;12.43;11.33;;;19.20;99.90;;;;;;5035362;28;20463;-65
2021/08/28 09:47:35;;;;;;;13.40;12.23;;;19.30;99.90;;;;;;5034884;28;20406;-66
2021/08/28 09:50:01;;;;;;;12.70;11.50;;;19.30;99.90;;;;;;5034900;28;20432;-65
2021/08/28 09:52:27;;;;;;;11.93;11.00;;;19.30;99.90;;;;;;5046998;28;20302;-65
2021/08/28 09:54:55;;;;;;;11.63;10.67;;;19.40;99.90;;;;;;5035694;28;20409;-65
2021/08/28 09:57:27;;;;;;;10.20;9.50;;;19.40;99.90;;;;;;5026961;28;20431;-66
2021/08/28 10:00:00;;;;;;;10.33;9.43;;;19.40;99.90;;;;;;5052261;28;20428;-65
2021/08/28 10:02:26;;;;;;;10.83;9.80;;;19.50;99.90;;;;;;5035348;28;20687;-65
2021/08/28 10:04:54;;;;;;;9.20;8.50;;;19.50;99.90;;;;;;5039938;28;20927;-65
2021/08/28 10:07:28;;;;;;;9.53;8.63;;;19.60;99.90;;;;;;5035680;28;20913;-65
2021/08/28 10:10:02;;;;;;;9.00;8.30;;;19.60;99.90;;;;;;5045638;28;20446;-65
2021/08/28 10:12:34;;;;;;;9.80;8.90;;;19.60;99.90;;;;;;5042431;28;20924;-65
2021/08/28 10:15:02;;;;;;;8.50;7.80;;;19.60;99.90;;;;;;5040937;28;20459;-65
2021/08/28 10:17:29;;;;;;;9.47;7.80;;;19.60;99.90;;;;;;5053665;28;20416;-65
2021/08/28 10:19:55;;;;;;;9.10;8.40;;;19.70;99.90;;;;;;5038039;28;20425;-65
2021/08/28 10:22:23;;;;;;;7.70;7.20;;;19.70;99.90;;;;;;5033160;28;20500;-65
2021/08/28 10:24:54;;;;;;;9.67;8.73;;;19.70;99.90;;;;;;5033562;28;20405;-65
2021/08/28 10:27:22;;;;;;;8.43;7.83;;;19.70;99.90;;;;;;5044539;28;20412;-67
2021/08/28 10:29:48;;;;;;;8.63;7.80;;;19.70;99.90;;;;;;5041525;28;20417;-65
2021/08/28 10:32:15;;;;;;;9.07;8.27;;;19.80;99.90;;;;;;5052522;28;20936;-66
2021/08/28 10:34:40;;;;;;;7.83;7.30;;;19.80;99.90;;;;;;5041401;28;20429;-65
2021/08/28 10:37:06;;;;;;;8.10;7.50;;;19.80;99.90;;;;;;5033417;28;20420;-65
2021/08/28 10:39:34;;;;;;;7.70;7.10;;;19.70;99.90;;;;;;5032436;28;20404;-65
2021/08/28 10:42:00;;;;;;;8.17;7.40;;;19.70;99.90;;;;;;5033603;28;20178;-65
2021/08/28 10:44:26;;;;;;;7.27;6.77;;;19.80;99.90;;;;;;5038825;28;20481;-65
2021/08/28 10:46:52;;;;;;;8.17;7.57;;;19.80;99.90;;;;;;5042318;28;20190;-65
2021/08/28 10:49:21;;;;;;;7.90;7.30;;;19.80;99.90;;;;;;5032588;28;20687;-66
2021/08/28 10:51:53;;;;;;;8.57;7.97;;;19.90;99.90;;;;;;5049072;28;20284;-66
2021/08/28 10:54:24;;;;;;;8.47;7.83;;;19.90;99.90;;;;;;5041250;28;20425;-66
2021/08/28 10:56:58;;;;;;;8.23;7.63;;;20.00;99.90;;;;;;5033518;28;20412;-65
2021/08/28 10:59:32;;;;;;;8.33;7.63;;;20.00;99.90;;;;;;5045636;28;20424;-66
2021/08/28 11:02:10;;;;;;;446.43;346.70;;;20.10;99.90;;;;;;5053297;28;20469;-66
2021/08/28 11:04:46;;;;;;;47.23;35.80;;;20.10;99.90;;;;;;5048668;28;20474;-65
2021/08/28 11:07:39;;;;;;;85.80;66.93;;;20.20;99.90;;;;;;5052070;28;20459;-70
2021/08/28 11:10:24;;;;;;;10.77;9.90;;;20.20;99.90;;;;;;5033856;28;20436;-66
2021/08/28 11:12:50;;;;;;;8.10;7.50;;;20.20;99.90;;;;;;5032705;28;20804;-66
2021/08/28 11:15:25;;;;;;;7.80;7.20;;;20.20;99.90;;;;;;5032653;28;20436;-66
2021/08/28 11:17:59;;;;;;;9.30;8.50;;;20.10;99.90;;;;;;5046619;28;20427;-66
2021/08/28 11:20:34;;;;;;;10.57;9.63;;;20.00;99.90;;;;;;5050036;28;20502;-65
2021/08/28 11:23:02;;;;;;;231.87;166.40;;;19.90;99.90;;;;;;5052965;28;20392;-65
2021/08/28 11:25:30;;;;;;;98.37;75.17;;;19.80;99.90;;;;;;5039364;28;20429;-65
2021/08/28 11:27:57;;;;;;;15.13;13.70;;;19.60;99.90;;;;;;5032800;28;20503;-65
2021/08/28 11:30:41;;;;;;;10.37;9.47;;;19.50;99.90;;;;;;5035749;28;20979;-65
2021/08/28 11:33:22;;;;;;;10.90;9.80;;;19.40;99.90;;;;;;5045020;28;20502;-65
2021/08/28 11:35:50;;;;;;;10.43;9.33;;;19.30;99.90;;;;;;5050347;28;20487;-65
2021/08/28 11:38:23;;;;;;;10.57;9.77;;;19.20;99.90;;;;;;5031709;28;20413;-68
2021/08/28 11:41:01;;;;;;;11.53;10.60;;;19.10;99.90;;;;;;5047021;28;20428;-65
2021/08/28 11:43:35;;;;;;;11.03;10.07;;;19.10;99.90;;;;;;5033749;28;20417;-65
2021/08/28 11:46:11;;;;;;;9.80;8.90;;;19.10;99.90;;;;;;5047441;28;20448;-65
2021/08/28 11:48:39;;;;;;;9.70;8.80;;;19.00;99.90;;;;;;5031707;28;20448;-66
2021/08/28 11:51:14;;;;;;;11.53;10.17;;;18.90;99.90;;;;;;5038431;28;20423;-65
2021/08/28 11:53:42;;;;;;;10.70;9.63;;;19.00;99.90;;;;;;5039845;28;20516;-65
2021/08/28 11:56:11;;;;;;;10.90;9.87;;;19.00;99.90;;;;;;5042230;28;20494;-67
2021/08/28 11:58:56;;;;;;;9.33;8.63;;;19.10;99.90;;;;;;5051713;28;20414;-67
2021/08/28 12:01:31;;;;;;;10.37;9.57;;;19.20;99.90;;;;;;5051764;28;20499;-68
2021/08/28 12:03:58;;;;;;;10.73;9.97;;;19.20;99.90;;;;;;5052557;28;20399;-68
2021/08/28 12:06:26;;;;;;;8.93;8.33;;;19.30;99.90;;;;;;5051908;28;20517;-67
2021/08/28 12:08:52;;;;;;;7.93;7.40;;;19.40;99.90;;;;;;5052479;28;20811;-68
2021/08/28 12:11:18;;;;;;;8.20;7.60;;;19.50;99.90;;;;;;5034054;28;20454;-67
2021/08/28 12:13:52;;;;;;;8.50;7.80;;;19.60;99.90;;;;;;5052267;28;20477;-68
2021/08/28 12:16:30;;;;;;;8.93;8.13;;;19.90;99.90;;;;;;5051938;28;20405;-68
2021/08/28 12:19:06;;;;;;;8.20;7.53;;;20.20;99.90;;;;;;5052437;28;20423;-68
2021/08/28 12:21:44;;;;;;;8.20;7.60;;;20.50;99.90;;;;;;5051195;28;20462;-68
2021/08/28 12:24:27;;;;;;;8.30;7.70;;;20.70;99.90;;;;;;5051927;28;20424;-67
2021/08/28 12:27:02;;;;;;;8.30;7.80;;;21.00;99.90;;;;;;5052454;28;20411;-68
2021/08/28 12:29:49;;;;;;;9.47;8.77;;;21.20;99.90;;;;;;5052062;28;20739;-68
2021/08/28 12:32:17;;;;;;;9.30;8.43;;;21.40;99.90;;;;;;5051537;28;20463;-75
2021/08/28 12:34:54;;;;;;;8.47;7.87;;;21.40;99.90;;;;;;5052333;28;20401;-67
2021/08/28 12:37:24;;;;;;;8.80;8.10;;;21.60;99.90;;;;;;5051507;28;20745;-68
2021/08/28 12:39:52;;;;;;;9.60;8.80;;;21.80;99.90;;;;;;5051992;28;20434;-68